Time;durP1;ratioP1;P1;durP2;ratioP2;P2;SDS_P1;SDS_P2;PMS_P1;PMS_P2;Temp;Humidity;BMP_temperature;BMP_pressure;BME280_temperature;BME280_humidity;BME280_pressure;Samples;Min_cycle;Max_cycle;Signal;HPM_P1;HPM_P2
2022/10/12 00:02:02;;;;;;;13.55;2.88;;;;;;;11.39;100.00;101046.25;4977072;28;20054;-89
2022/10/12 00:04:29;;;;;;;8.00;2.35;;;;;;;11.34;100.00;101038.53;4988896;28;20050;-89
2022/10/12 00:06:55;;;;;;;10.98;2.38;;;;;;;11.41;100.00;101049.66;4980436;28;20108;-89
2022/10/12 00:09:22;;;;;;;6.78;1.75;;;;;;;11.28;100.00;101035.25;4994365;28;20050;-90
2022/10/12 00:11:49;;;;;;;8.50;2.40;;;;;;;11.25;100.00;101035.41;4977717;28;20457;-89
2022/10/12 00:14:15;;;;;;;8.38;2.03;;;;;;;11.43;100.00;101039.97;4976441;28;20054;-90
2022/10/12 00:16:42;;;;;;;9.55;2.00;;;;;;;11.37;100.00;101001.72;4988481;28;20066;-89
2022/10/12 00:19:12;;;;;;;6.57;1.92;;;;;;;11.15;100.00;101006.88;4976189;28;20050;-89
2022/10/12 00:21:39;;;;;;;9.02;2.15;;;;;;;11.26;100.00;101029.22;4978480;28;20097;-89
2022/10/12 00:24:06;;;;;;;6.13;1.58;;;;;;;11.23;100.00;101026.75;4993757;28;20102;-89
2022/10/12 00:26:32;;;;;;;7.72;1.90;;;;;;;11.40;100.00;101038.31;4976574;28;20058;-89
2022/10/12 00:29:01;;;;;;;11.30;2.10;;;;;;;11.58;100.00;101038.56;4974480;28;20474;-89
2022/10/12 00:31:28;;;;;;;8.65;1.58;;;;;;;11.54;100.00;101016.84;4971411;28;20058;-90
2022/10/12 00:33:59;;;;;;;7.63;1.55;;;;;;;11.35;100.00;101015.78;4990394;28;20409;-89
2022/10/12 00:36:30;;;;;;;8.63;1.70;;;;;;;11.56;100.00;101045.59;4994653;28;20046;-90
2022/10/12 00:38:57;;;;;;;8.55;1.83;;;;;;;11.62;100.00;101042.78;4989962;28;20050;-90
2022/10/12 00:41:28;;;;;;;7.00;1.63;;;;;;;11.55;100.00;101034.28;4976176;28;20455;-90
2022/10/12 00:43:55;;;;;;;9.88;2.28;;;;;;;11.35;100.00;101002.69;4973103;28;20050;-89
2022/10/12 00:46:24;;;;;;;5.53;1.20;;;;;;;11.47;100.00;101004.00;4976259;28;20062;-90
2022/10/12 00:49:19;;;;;;;8.82;1.40;;;;;;;11.57;100.00;101024.56;4990694;28;20046;-90
2022/10/12 00:51:51;;;;;;;7.40;1.60;;;;;;;11.49;100.00;101000.44;4991858;28;20054;-89
2022/10/12 00:54:31;;;;;;;5.47;1.70;;;;;;;11.36;100.00;100986.88;4976806;28;20054;-89
2022/10/12 00:57:00;;;;;;;9.75;2.95;;;;;;;11.13;100.00;100976.41;4975105;28;20058;-89
2022/10/12 00:59:38;;;;;;;12.88;1.70;;;;;;;11.26;100.00;100982.03;4992910;28;20117;-89
2022/10/12 01:02:05;;;;;;;5.28;1.42;;;;;;;11.16;100.00;101005.13;4992049;28;20126;-90
2022/10/12 01:04:32;;;;;;;6.50;2.22;;;;;;;11.35;100.00;100982.56;4976306;28;20093;-89
2022/10/12 01:06:59;;;;;;;10.80;1.95;;;;;;;11.36;100.00;100980.81;4975825;28;20053;-90
2022/10/12 01:09:27;;;;;;;10.93;1.88;;;;;;;11.36;100.00;100992.13;4974365;28;20500;-90
2022/10/12 01:11:56;;;;;;;8.90;1.55;;;;;;;11.08;100.00;100941.66;4975658;28;20062;-89
2022/10/12 01:14:24;;;;;;;11.45;2.10;;;;;;;11.23;100.00;100995.28;4987919;28;20113;-90
2022/10/12 01:17:05;;;;;;;7.10;1.70;;;;;;;11.40;100.00;100975.41;4975414;28;20113;-89
2022/10/12 01:19:54;;;;;;;4.78;1.50;;;;;;;11.42;100.00;100975.34;4971259;28;20464;-90
2022/10/12 01:22:22;;;;;;;8.13;1.55;;;;;;;11.25;100.00;100948.91;4988990;28;20051;-90
2022/10/12 01:24:51;;;;;;;7.85;2.13;;;;;;;11.37;100.00;100959.78;4975884;28;20054;-90
2022/10/12 01:27:33;;;;;;;8.43;1.85;;;;;;;11.49;100.00;100961.09;4992162;28;20105;-90
2022/10/12 01:30:17;;;;;;;9.27;2.85;;;;;;;11.40;100.00;100950.94;4971575;28;20054;-89
2022/10/12 01:33:03;;;;;;;;;;;;;;;11.49;100.00;100950.59;4975449;28;20057;-89
2022/10/12 01:35:32;;;;;;;10.60;2.25;;;;;;;11.39;100.00;100954.47;4974538;28;19925;-90
2022/10/12 01:37:59;;;;;;;6.25;1.50;;;;;;;11.28;100.00;100941.78;4991709;28;20050;-90
2022/10/12 01:40:40;;;;;;;7.75;2.20;;;;;;;11.12;100.00;100946.72;4975770;28;20057;-89
2022/10/12 01:43:07;;;;;;;9.88;2.20;;;;;;;11.19;100.00;100942.97;4990431;28;20051;-90
2022/10/12 01:45:34;;;;;;;10.75;1.70;;;;;;;11.22;100.00;100931.50;4971735;28;20050;-90
2022/10/12 01:48:03;;;;;;;9.48;1.70;;;;;;;11.08;100.00;100918.06;4991237;28;20062;-90
2022/10/12 01:50:50;;;;;;;9.65;2.00;;;;;;;10.87;100.00;100897.00;4975649;28;20054;-90
2022/10/12 01:53:47;;;;;;;11.80;2.40;;;;;;;10.94;100.00;100923.78;4993191;28;20046;-90
2022/10/12 01:56:26;;;;;;;12.68;2.88;;;;;;;11.04;100.00;100909.47;4974497;28;20050;-89
2022/10/12 01:59:13;;;;;;;7.03;2.05;;;;;;;11.21;100.00;100914.94;4977416;28;20062;-89
2022/10/12 02:01:51;;;;;;;12.95;3.03;;;;;;;11.07;100.00;100911.97;4969277;28;20050;-89
2022/10/12 02:04:20;;;;;;;11.75;2.00;;;;;;;11.12;100.00;100906.53;4969671;28;20097;-89
2022/10/12 02:06:58;;;;;;;10.43;1.63;;;;;;;11.24;100.00;100895.59;4977486;28;20056;-89
2022/10/12 02:09:28;;;;;;;14.68;3.13;;;;;;;11.03;100.00;100897.28;4990391;28;20051;-89
2022/10/12 02:12:03;;;;;;;6.75;2.08;;;;;;;11.09;100.00;100880.47;4978959;28;20774;-89
2022/10/12 02:14:37;;;;;;;10.75;2.33;;;;;;;11.13;100.00;100896.00;4972648;28;20104;-89
2022/10/12 02:17:09;;;;;;;10.65;2.05;;;;;;;11.15;100.00;100899.41;4975062;28;20046;-89
2022/10/12 02:19:42;;;;;;;15.07;2.67;;;;;;;10.87;100.00;100860.31;4973691;28;20047;-89
2022/10/12 02:22:10;;;;;;;9.70;2.10;;;;;;;10.95;100.00;100862.66;4993230;28;20100;-89
2022/10/12 02:24:40;;;;;;;11.07;2.00;;;;;;;11.12;100.00;100867.22;4975130;28;20054;-89
2022/10/12 02:27:09;;;;;;;13.20;2.08;;;;;;;11.12;100.00;100860.25;4975477;28;20046;-90
2022/10/12 02:29:39;;;;;;;10.25;1.73;;;;;;;11.28;100.00;100868.38;4974795;28;20062;-88
2022/10/12 02:32:18;;;;;;;8.82;1.90;;;;;;;11.15;100.00;100869.75;4987874;28;20055;-88
2022/10/12 02:35:09;;;;;;;9.32;2.00;;;;;;;11.26;100.00;100858.84;4977356;28;20054;-88
2022/10/12 02:37:50;;;;;;;8.35;2.10;;;;;;;11.24;100.00;100865.94;4972089;28;20051;-88
2022/10/12 02:40:27;;;;;;;9.02;1.98;;;;;;;11.21;100.00;100852.03;4989151;28;20063;-88
2022/10/12 02:43:08;;;;;;;11.00;2.70;;;;;;;11.19;100.00;100848.63;4988239;28;20054;-88
2022/10/12 02:45:42;;;;;;;12.30;1.85;;;;;;;11.25;100.00;100849.31;4975461;28;20074;-88
2022/10/12 02:48:15;;;;;;;10.40;2.63;;;;;;;11.14;100.00;100819.13;4966814;28;20109;-88
2022/10/12 02:50:43;;;;;;;19.02;3.03;;;;;;;10.98;100.00;100818.00;4989156;28;20098;-88
2022/10/12 02:53:11;;;;;;;7.65;1.80;;;;;;;11.12;100.00;100818.31;4987793;28;20055;-88
2022/10/12 02:55:47;;;;;;;10.73;2.78;;;;;;;10.98;100.00;100826.72;4990009;28;20445;-88
2022/10/12 02:58:14;;;;;;;8.23;1.83;;;;;;;11.02;100.00;100809.94;4992465;28;20057;-88
2022/10/12 03:00:40;;;;;;;9.73;2.17;;;;;;;10.95;100.00;100805.00;4977161;28;20055;-88
2022/10/12 03:03:07;;;;;;;15.85;2.80;;;;;;;10.84;100.00;100802.81;4978861;28;20058;-89
2022/10/12 03:05:34;;;;;;;15.05;2.92;;;;;;;10.88;100.00;100800.91;4990940;28;20051;-87
2022/10/12 03:08:01;;;;;;;24.00;4.65;;;;;;;10.65;100.00;100789.53;4994444;28;20108;-88
2022/10/12 03:10:27;;;;;;;12.68;2.63;;;;;;;10.76;100.00;100802.22;4975238;28;20509;-87
2022/10/12 03:12:54;;;;;;;8.55;2.47;;;;;;;10.78;100.00;100780.31;4979881;28;20101;-87
2022/10/12 03:15:21;;;;;;;17.20;3.65;;;;;;;10.79;100.00;100771.53;4995069;28;20402;-87
2022/10/12 03:17:47;;;;;;;12.57;3.28;;;;;;;10.99;100.00;100803.97;4975969;28;20054;-86
2022/10/12 03:20:14;;;;;;;18.05;2.92;;;;;;;11.13;100.00;100801.66;4977881;28;20050;-87
2022/10/12 03:22:41;;;;;;;19.27;3.40;;;;;;;11.11;100.00;100803.50;4994122;28;20109;-87
2022/10/12 03:25:08;;;;;;;14.35;3.03;;;;;;;11.34;100.00;100799.97;4978095;28;20105;-86
2022/10/12 03:27:34;;;;;;;14.23;2.47;;;;;;;11.28;100.00;100805.47;4974112;28;20090;-87
2022/10/12 03:30:01;;;;;;;11.20;2.28;;;;;;;11.12;100.00;100799.97;4993757;28;20050;-87
2022/10/12 03:32:28;;;;;;;13.43;3.40;;;;;;;11.20;100.00;100787.41;4993939;28;20054;-87
2022/10/12 03:34:55;;;;;;;18.63;2.88;;;;;;;11.20;100.00;100789.19;4974662;28;20409;-87
2022/10/12 03:37:22;;;;;;;17.13;3.28;;;;;;;11.33;100.00;100789.53;4991060;28;20059;-88
2022/10/12 03:39:49;;;;;;;12.35;2.40;;;;;;;11.37;100.00;100784.13;4963787;28;20047;-88
2022/10/12 03:42:15;;;;;;;17.42;3.40;;;;;;;11.21;100.00;100785.66;4993992;28;20525;-88
2022/10/12 03:44:42;;;;;;;20.15;3.17;;;;;;;11.13;100.00;100757.13;4972696;28;20054;-88
2022/10/12 03:47:09;;;;;;;12.68;3.08;;;;;;;11.14;100.00;100740.50;4993671;28;20489;-88
2022/10/12 03:49:35;;;;;;;15.07;3.10;;;;;;;10.93;100.00;100723.84;4995646;28;20504;-85
2022/10/12 03:52:02;;;;;;;13.88;3.40;;;;;;;11.10;100.00;100743.28;4994014;28;20485;-85
2022/10/12 03:54:29;;;;;;;18.23;3.00;;;;;;;11.19;100.00;100749.03;4982380;28;20061;-87
2022/10/12 03:56:56;;;;;;;16.13;3.42;;;;;;;11.39;100.00;100758.72;4977798;28;20051;-88
2022/10/12 03:59:23;;;;;;;15.43;3.47;;;;;;;11.28;100.00;100733.84;4993536;28;20073;-87
2022/10/12 04:01:50;;;;;;;16.15;3.30;;;;;;;11.14;100.00;100713.44;4993728;28;20113;-88
2022/10/12 04:04:17;;;;;;;16.08;3.22;;;;;;;11.22;100.00;100719.22;4995118;28;20408;-88
2022/10/12 04:06:43;;;;;;;10.00;2.17;;;;;;;11.60;100.00;100764.00;4976908;28;20050;-87
2022/10/12 04:09:10;;;;;;;23.25;5.22;;;;;;;11.68;100.00;100763.66;4973188;28;20183;-87
2022/10/12 04:11:37;;;;;;;14.95;3.00;;;;;;;11.54;100.00;100736.28;4984219;28;20120;-85
2022/10/12 04:14:04;;;;;;;15.10;3.05;;;;;;;11.77;100.00;100761.53;4983152;28;20050;-87
2022/10/12 04:16:30;;;;;;;18.75;4.00;;;;;;;11.59;100.00;100746.53;4980456;28;20046;-88
2022/10/12 04:18:57;;;;;;;18.13;3.47;;;;;;;11.59;100.00;100747.38;4980383;28;20094;-88
2022/10/12 04:21:24;;;;;;;13.63;3.22;;;;;;;11.75;100.00;100742.34;4977329;28;20050;-88
2022/10/12 04:23:51;;;;;;;16.38;3.08;;;;;;;11.82;100.00;100748.19;4982386;28;20114;-87
2022/10/12 04:26:18;;;;;;;16.40;3.53;;;;;;;11.41;100.00;100703.59;4993755;28;20047;-87
2022/10/12 04:28:44;;;;;;;18.20;3.70;;;;;;;11.51;100.00;100723.28;4976835;28;20476;-87
2022/10/12 04:31:11;;;;;;;13.88;3.58;;;;;;;11.62;100.00;100725.44;4993615;28;20054;-88
2022/10/12 04:33:38;;;;;;;11.63;2.97;;;;;;;11.57;100.00;100694.16;4993614;28;20058;-87
2022/10/12 04:36:05;;;;;;;16.70;3.47;;;;;;;11.79;100.00;100732.56;4992289;28;20042;-88
2022/10/12 04:38:31;;;;;;;17.95;4.43;;;;;;;11.72;100.00;100732.00;4977002;28;20100;-88
2022/10/12 04:40:58;;;;;;;18.98;3.53;;;;;;;11.76;100.00;100717.84;4993039;28;20050;-88
2022/10/12 04:43:25;;;;;;;18.33;4.18;;;;;;;11.59;100.00;100688.84;4992206;28;20477;-89
2022/10/12 04:45:56;;;;;;;24.73;4.55;;;;;;;11.55;100.00;100693.38;4992736;28;20763;-89
2022/10/12 04:48:23;;;;;;;22.05;4.15;;;;;;;11.67;100.00;100692.00;4976615;28;20104;-88
2022/10/12 04:50:51;;;;;;;17.70;3.42;;;;;;;11.71;100.00;100688.31;4976834;28;20050;-86
2022/10/12 04:53:18;;;;;;;19.08;4.10;;;;;;;11.67;100.00;100686.75;4976488;28;20500;-88
2022/10/12 04:55:45;;;;;;;20.33;4.53;;;;;;;11.71;100.00;100682.25;4993698;28;20096;-87
2022/10/12 04:58:12;;;;;;;19.30;4.30;;;;;;;11.68;100.00;100677.97;4976024;28;20050;-87
2022/10/12 05:00:39;;;;;;;19.60;3.63;;;;;;;11.88;100.00;100678.88;4975718;28;20046;-88
2022/10/12 05:03:05;;;;;;;18.02;3.65;;;;;;;11.83;100.00;100678.22;4976483;28;20591;-85
2022/10/12 05:05:33;;;;;;;20.70;3.55;;;;;;;11.88;100.00;100678.88;4991829;28;20046;-88
2022/10/12 05:08:00;;;;;;;13.50;3.33;;;;;;;11.93;100.00;100664.69;4992195;28;20050;-88
2022/10/12 05:10:26;;;;;;;18.08;3.20;;;;;;;11.96;100.00;100672.41;4976547;28;20108;-89
2022/10/12 05:12:53;;;;;;;22.95;3.88;;;;;;;11.83;100.00;100658.09;5004050;28;20058;-89
2022/10/12 05:15:20;;;;;;;17.45;4.03;;;;;;;11.77;100.00;100626.88;4992452;28;20689;-88
2022/10/12 05:17:47;;;;;;;16.85;3.72;;;;;;;11.97;100.00;100652.28;4976157;28;20077;-89
2022/10/12 05:20:13;;;;;;;15.32;3.78;;;;;;;11.80;100.00;100642.47;4977314;28;20552;-89
2022/10/12 05:22:40;;;;;;;19.67;3.30;;;;;;;11.74;100.00;100622.63;4989131;28;20087;-89
2022/10/12 05:25:08;;;;;;;19.42;3.25;;;;;;;11.89;100.00;100656.97;4993005;28;20058;-88
2022/10/12 05:27:34;;;;;;;20.90;3.13;;;;;;;11.82;100.00;100643.25;5003318;28;20125;-89
2022/10/12 05:30:03;;;;;;;21.70;4.70;;;;;;;11.95;100.00;100648.84;4994661;28;20058;-86
2022/10/12 05:32:29;;;;;;;20.90;3.95;;;;;;;12.06;100.00;100661.50;4977446;28;20046;-89
2022/10/12 05:34:57;;;;;;;19.92;3.53;;;;;;;12.00;100.00;100653.91;4991368;28;20057;-88
2022/10/12 05:37:23;;;;;;;18.15;4.22;;;;;;;11.64;100.00;100652.78;4963660;28;20047;-89
2022/10/12 05:39:50;;;;;;;13.13;3.05;;;;;;;11.73;100.00;100641.06;4970267;28;20055;-88
2022/10/12 05:42:17;;;;;;;19.83;3.95;;;;;;;11.52;100.00;100612.22;4992921;28;20058;-86
2022/10/12 05:44:44;;;;;;;14.27;3.55;;;;;;;11.59;100.00;100612.81;4974496;28;20471;-85
2022/10/12 05:47:11;;;;;;;20.85;3.60;;;;;;;11.69;100.00;100618.50;4983586;28;20534;-88
2022/10/12 05:49:38;;;;;;;25.83;4.22;;;;;;;11.56;100.00;100612.94;4971825;28;20100;-88
2022/10/12 05:52:04;;;;;;;19.23;4.22;;;;;;;11.76;100.00;100618.16;4974744;28;20097;-88
2022/10/12 05:54:31;;;;;;;18.67;4.18;;;;;;;11.90;100.00;100627.19;4975524;28;20054;-88
2022/10/12 05:56:58;;;;;;;20.77;3.85;;;;;;;11.70;100.00;100622.81;4988439;28;20100;-85
2022/10/12 05:59:24;;;;;;;17.52;3.88;;;;;;;11.80;100.00;100611.00;4971248;28;20046;-88
2022/10/12 06:01:51;;;;;;;21.95;4.50;;;;;;;11.67;100.00;100596.72;4974949;28;20085;-88
2022/10/12 06:04:18;;;;;;;18.90;3.90;;;;;;;11.47;100.00;100587.13;4974567;28;20519;-88
2022/10/12 06:06:45;;;;;;;22.25;3.33;;;;;;;11.68;100.00;100611.56;4991341;28;20105;-87
2022/10/12 06:09:12;;;;;;;17.10;3.60;;;;;;;11.62;100.00;100577.75;4973333;28;20062;-86
2022/10/12 06:11:39;;;;;;;19.88;4.22;;;;;;;11.65;100.00;100583.72;4984452;28;20084;-85
2022/10/12 06:14:06;;;;;;;21.83;5.20;;;;;;;11.50;100.00;100579.97;4969036;28;20050;-86
2022/10/12 06:16:32;;;;;;;16.50;3.67;;;;;;;11.64;100.00;100589.84;4969826;28;20049;-84
2022/10/12 06:18:59;;;;;;;18.20;3.63;;;;;;;11.45;100.00;100579.31;4973146;28;20075;-85
2022/10/12 06:21:26;;;;;;;24.27;4.40;;;;;;;11.27;100.00;100562.63;4991930;28;20832;-86
2022/10/12 06:24:00;;;;;;;19.02;4.03;;;;;;;11.54;100.00;100573.69;4986654;28;20054;-87
2022/10/12 06:26:27;;;;;;;19.02;4.00;;;;;;;11.64;100.00;100579.38;4971270;28;20090;-87
2022/10/12 06:28:54;;;;;;;18.50;4.03;;;;;;;11.52;100.00;100561.56;4972527;28;20054;-87
2022/10/12 06:31:21;;;;;;;23.75;4.65;;;;;;;11.57;100.00;100588.44;4977195;28;20050;-84
2022/10/12 06:33:49;;;;;;;18.60;3.58;;;;;;;11.73;100.00;100559.75;4963109;28;20486;-89
2022/10/12 06:36:16;;;;;;;15.38;3.22;;;;;;;11.77;100.00;100572.66;4939893;28;20078;-90
2022/10/12 06:38:43;;;;;;;16.45;3.72;;;;;;;11.84;100.00;100575.84;4956509;28;20051;-88
2022/10/12 06:41:10;;;;;;;13.15;3.33;;;;;;;11.79;100.00;100567.31;4956134;28;20061;-87
2022/10/12 06:43:37;;;;;;;25.65;3.92;;;;;;;11.67;100.00;100546.91;4947437;28;20058;-87
2022/10/12 06:46:04;;;;;;;17.33;4.28;;;;;;;11.67;100.00;100536.41;4959789;28;20046;-88
2022/10/12 06:48:30;;;;;;;19.60;4.60;;;;;;;11.66;100.00;100556.53;4964838;28;20059;-87
2022/10/12 06:50:57;;;;;;;23.75;3.83;;;;;;;11.84;100.00;100565.34;4953126;28;20059;-87
2022/10/12 06:53:27;;;;;;;16.45;3.78;;;;;;;11.54;100.00;100567.56;4960415;28;20113;-87
2022/10/12 06:55:54;;;;;;;17.70;3.65;;;;;;;11.60;100.00;100562.06;4964786;28;20046;-87
2022/10/12 06:58:21;;;;;;;20.20;4.38;;;;;;;11.68;100.00;100538.13;4947413;29;20395;-87
2022/10/12 07:00:47;;;;;;;17.33;3.28;;;;;;;11.82;100.00;100532.25;4957603;28;20621;-87
2022/10/12 07:03:16;;;;;;;21.75;4.03;;;;;;;11.96;100.00;100553.47;4972069;28;20464;-88
2022/10/12 07:05:43;;;;;;;15.50;3.22;;;;;;;11.66;100.00;100505.88;4960132;28;20133;-88
2022/10/12 07:08:09;;;;;;;13.88;2.85;;;;;;;11.88;100.00;100543.31;4956279;28;20054;-86
2022/10/12 07:10:36;;;;;;;14.10;2.80;;;;;;;11.49;100.00;100477.78;4957680;28;20184;-88
2022/10/12 07:13:03;;;;;;;17.55;2.92;;;;;;;11.84;100.00;100530.41;4969854;28;20057;-88
2022/10/12 07:15:29;;;;;;;20.42;3.92;;;;;;;11.56;100.00;100498.44;4950034;29;20059;-88
2022/10/12 07:17:56;;;;;;;13.93;3.35;;;;;;;11.46;100.00;100467.47;4958799;28;20090;-88
2022/10/12 07:20:23;;;;;;;19.38;4.50;;;;;;;11.69;100.00;100501.34;4970603;28;20062;-87
2022/10/12 07:22:51;;;;;;;17.50;3.20;;;;;;;11.81;100.00;100496.44;4976498;28;20402;-88
2022/10/12 07:25:18;;;;;;;17.05;4.15;;;;;;;11.90;100.00;100496.03;4974661;28;20163;-87
2022/10/12 07:27:47;;;;;;;13.98;3.03;;;;;;;11.98;100.00;100488.66;4958690;28;20043;-88
2022/10/12 07:30:14;;;;;;;17.48;3.92;;;;;;;11.68;100.00;100451.56;4975169;28;20055;-88
2022/10/12 07:32:43;;;;;;;17.58;3.60;;;;;;;11.69;100.00;100433.16;4965975;28;20050;-87
2022/10/12 07:35:10;;;;;;;17.58;3.67;;;;;;;11.65;100.00;100444.72;4975219;28;20527;-87
2022/10/12 07:37:36;;;;;;;19.70;5.22;;;;;;;11.66;100.00;100442.94;4990761;28;20042;-87
2022/10/12 07:40:04;;;;;;;15.95;4.20;;;;;;;11.62;100.00;100425.66;4972821;28;20054;-88
2022/10/12 07:42:31;;;;;;;24.58;4.38;;;;;;;11.88;100.00;100456.75;4989552;28;20050;-87
2022/10/12 07:44:58;;;;;;;19.27;3.67;;;;;;;12.00;100.00;100441.34;4972978;28;20113;-88
2022/10/12 07:47:24;;;;;;;21.05;3.80;;;;;;;11.81;100.00;100428.22;4970166;28;20100;-87
2022/10/12 07:49:51;;;;;;;21.13;4.25;;;;;;;11.78;100.00;100405.63;4981212;28;20135;-87
2022/10/12 07:52:18;;;;;;;23.65;4.20;;;;;;;12.13;100.00;100417.06;4990866;28;20097;-88
2022/10/12 07:54:44;;;;;;;22.70;5.63;;;;;;;11.95;100.00;100428.44;4977905;28;20449;-87
2022/10/12 07:57:11;;;;;;;21.70;4.22;;;;;;;11.96;100.00;100433.63;4994040;28;20448;-86
2022/10/12 07:59:38;;;;;;;17.88;3.30;;;;;;;12.14;100.00;100408.25;4977606;28;20046;-87
2022/10/12 08:02:05;;;;;;;18.20;4.00;;;;;;;11.94;100.00;100384.78;4978627;28;20054;-87
2022/10/12 08:04:32;;;;;;;20.63;3.47;;;;;;;12.27;100.00;100426.91;4994250;28;20050;-87
2022/10/12 08:06:59;;;;;;;17.02;4.32;;;;;;;12.28;100.00;100406.75;4977719;28;20481;-88
2022/10/12 08:09:25;;;;;;;18.80;4.13;;;;;;;12.28;100.00;100407.59;4977946;28;20050;-87
2022/10/12 08:11:52;;;;;;;17.92;3.75;;;;;;;12.21;100.00;100427.19;4993065;28;20113;-86
2022/10/12 08:14:19;;;;;;;18.25;3.38;;;;;;;12.56;100.00;100435.09;4965621;28;20401;-89
2022/10/12 08:16:46;;;;;;;23.42;3.80;;;;;;;12.40;100.00;100405.28;4987484;28;20109;-88
2022/10/12 08:19:13;;;;;;;28.92;4.10;;;;;;;12.43;100.00;100392.84;4991989;28;20097;-90
2022/10/12 08:21:41;;;;;;;16.60;3.72;;;;;;;12.24;100.00;100371.09;4991497;28;20057;-89
2022/10/12 08:24:11;;;;;;;12.90;2.83;;;;;;;12.63;100.00;100397.06;4979117;28;20050;-89
2022/10/12 08:26:38;;;;;;;17.10;3.30;;;;;;;12.59;100.00;100390.28;4987429;28;20809;-88
2022/10/12 08:29:07;;;;;;;22.60;5.53;;;;;;;12.86;100.00;100421.31;4968732;28;20062;-89
2022/10/12 08:31:34;;;;;;;24.95;3.90;;;;;;;12.43;100.00;100386.72;4989232;28;20141;-89
2022/10/12 08:34:01;;;;;;;16.92;3.05;;;;;;;12.79;100.00;100419.94;4974536;28;20043;-89
2022/10/12 08:36:27;;;;;;;12.07;2.92;;;;;;;12.89;100.00;100414.13;4978381;28;20050;-89
2022/10/12 08:38:54;;;;;;;9.48;3.17;;;;;;;12.83;100.00;100393.41;4962050;28;20195;-90
2022/10/12 08:41:33;;;;;;;20.67;4.07;;;;;;;12.88;100.00;100424.69;4968130;28;20055;-90
2022/10/12 08:44:06;;;;;;;14.95;2.78;;;;;;;12.93;100.00;100430.56;4969235;28;20051;-88
2022/10/12 08:46:33;;;;;;;17.83;3.35;;;;;;;12.83;100.00;100392.56;4981734;28;20050;-89
2022/10/12 08:49:27;;;;;;;12.48;2.45;;;;;;;12.96;100.00;100401.50;4978415;28;20405;-89
2022/10/12 08:51:56;;;;;;;13.18;2.33;;;;;;;12.71;100.00;100402.78;4974439;28;20051;-88
2022/10/12 08:54:27;;;;;;;14.30;2.70;;;;;;;12.89;100.00;100400.09;4976427;28;20055;-89
2022/10/12 08:56:55;;;;;;;16.60;2.92;;;;;;;12.80;100.00;100404.09;4958950;28;20042;-89
2022/10/12 08:59:24;;;;;;;24.95;3.50;;;;;;;12.80;100.00;100411.09;4975934;28;20477;-89
2022/10/12 09:02:17;;;;;;;12.52;2.60;;;;;;;13.16;100.00;100424.09;4974517;28;20097;-89
2022/10/12 09:04:57;;;;;;;16.45;2.42;;;;;;;13.19;100.00;100428.31;4974887;28;20205;-88
2022/10/12 09:07:50;;;;;;;12.15;2.80;;;;;;;13.24;100.00;100418.41;4974933;28;20058;-88
2022/10/12 09:10:42;;;;;;;11.05;2.20;;;;;;;13.25;100.00;100426.22;4958522;28;20046;-88
2022/10/12 09:13:54;;;;;;;8.82;1.90;;;;;;;13.29;100.00;100427.75;4963377;28;20050;-89
2022/10/12 09:16:28;;;;;;;9.73;1.90;;;;;;;13.15;100.00;100406.63;4942910;29;20047;-89
2022/10/12 09:18:56;;;;;;;;;;;;;;;13.36;100.00;100445.88;4970354;28;20390;-89
2022/10/12 09:21:26;;;;;;;11.18;2.00;;;;;;;13.38;100.00;100417.72;4974886;28;19922;-89
2022/10/12 09:23:55;;;;;;;10.13;1.90;;;;;;;13.20;100.00;100430.03;4967507;28;20054;-89
2022/10/12 09:26:43;;;;;;;12.95;2.25;;;;;;;13.31;100.00;100432.97;4958703;28;20055;-88
2022/10/12 09:29:22;;;;;;;11.40;2.30;;;;;;;13.34;100.00;100366.22;4974287;28;20054;-88
2022/10/12 09:31:49;;;;;;;6.35;1.65;;;;;;;13.78;100.00;100407.63;4977408;28;20078;-89
2022/10/12 09:34:15;;;;;;;7.65;1.80;;;;;;;13.62;100.00;100371.66;4990121;28;20047;-88
2022/10/12 09:36:45;;;;;;;7.35;2.00;;;;;;;13.52;100.00;100380.97;4992007;28;20475;-88
2022/10/12 09:39:15;;;;;;;7.30;1.90;;;;;;;13.76;100.00;100388.44;4976730;28;20408;-89
2022/10/12 09:41:44;;;;;;;8.38;1.65;;;;;;;13.86;100.00;100382.56;4977597;28;20047;-88
2022/10/12 09:44:19;;;;;;;10.40;2.20;;;;;;;13.73;100.00;100357.03;4993806;28;20046;-88
2022/10/12 09:46:54;;;;;;;9.38;1.80;;;;;;;13.97;100.00;100384.59;5003675;28;20058;-88
2022/10/12 09:49:21;;;;;;;4.65;1.35;;;;;;;13.79;100.00;100361.94;4985219;28;20109;-89
2022/10/12 09:51:58;;;;;;;6.90;1.65;;;;;;;13.97;100.00;100362.66;4991960;28;20121;-89
2022/10/12 09:54:26;;;;;;;6.22;1.58;;;;;;;13.91;100.00;100379.66;4993256;28;20057;-89
2022/10/12 09:56:54;;;;;;;5.95;1.63;;;;;;;13.55;100.00;100330.84;4993550;28;20050;-88
2022/10/12 09:59:30;;;;;;;5.93;1.48;;;;;;;13.87;100.00;100380.78;4983629;28;20061;-89
2022/10/12 10:02:08;;;;;;;7.40;2.15;;;;;;;13.75;100.00;100387.59;4995694;28;20145;-89
2022/10/12 10:04:36;;;;;;;7.35;1.80;;;;;;;14.09;100.00;100383.03;4993435;28;20050;-88
2022/10/12 10:07:30;;;;;;;7.03;1.55;;;;;;;14.03;100.00;100378.97;4993322;28;20054;-90
2022/10/12 10:10:11;;;;;;;7.93;1.90;;;;;;;13.83;100.00;100374.84;4994916;28;20101;-88
2022/10/12 10:12:57;;;;;;;11.45;1.90;;;;;;;13.51;100.00;100350.38;4977510;28;20054;-89
2022/10/12 10:15:27;;;;;;;6.80;1.17;;;;;;;13.66;100.00;100373.16;4998206;28;20057;-89
2022/10/12 10:17:58;;;;;;;4.72;1.20;;;;;;;13.50;100.00;100335.50;4995274;28;20043;-89
2022/10/12 10:20:27;;;;;;;5.82;1.23;;;;;;;13.50;100.00;100335.50;4982414;28;20101;-89
2022/10/12 10:22:54;;;;;;;29.95;3.88;;;;;;;13.56;100.00;100327.25;4978873;28;20047;-88
2022/10/12 10:25:23;;;;;;;6.22;1.33;;;;;;;13.52;100.00;100317.00;4990507;28;20065;-90
2022/10/12 10:28:09;;;;;;;4.78;1.40;;;;;;;13.42;100.00;100349.09;4999018;28;20053;-89
2022/10/12 10:30:36;;;;;;;2.90;1.00;;;;;;;13.67;100.00;100352.97;4994227;28;20054;-89
2022/10/12 10:33:15;;;;;;;4.47;1.02;;;;;;;13.72;100.00;100360.59;4995339;28;20114;-89
2022/10/12 10:36:11;;;;;;;7.65;1.20;;;;;;;13.62;100.00;100349.75;4982383;28;20053;-91
2022/10/12 10:39:06;;;;;;;3.03;1.35;;;;;;;13.59;100.00;100361.28;4970533;28;20047;-89
2022/10/12 10:41:41;;;;;;;4.03;1.10;;;;;;;13.77;100.00;100353.28;4979687;28;20101;-88
2022/10/12 10:44:23;;;;;;;6.07;1.48;;;;;;;13.59;100.00;100358.66;4981344;28;20061;-90
2022/10/12 10:46:52;;;;;;;2.03;0.90;;;;;;;13.61;100.00;100358.56;4981614;28;20544;-90
2022/10/12 10:49:42;;;;;;;6.75;1.48;;;;;;;13.32;100.00;100341.81;4978784;28;20058;-90
2022/10/12 10:52:41;;;;;;;5.00;1.15;;;;;;;13.38;100.00;100355.44;4996236;28;20085;-89
2022/10/12 10:55:25;;;;;;;3.60;1.00;;;;;;;13.67;100.00;100360.88;4994842;28;20434;-90
2022/10/12 10:57:58;;;;;;;5.32;1.30;;;;;;;13.62;100.00;100353.22;4981647;28;20183;-90
2022/10/12 11:00:28;;;;;;;3.25;1.00;;;;;;;13.79;100.00;100352.28;4983627;28;20055;-90
2022/10/12 11:03:19;;;;;;;3.30;1.02;;;;;;;13.62;100.00;100355.03;4997230;28;20078;-90
2022/10/12 11:05:53;;;;;;;2.67;1.00;;;;;;;13.49;100.00;100312.75;4980881;28;20096;-90
2022/10/12 11:08:24;;;;;;;4.13;1.20;;;;;;;13.79;100.00;100354.06;4998482;28;20054;-90
2022/10/12 11:11:11;;;;;;;3.58;1.13;;;;;;;13.83;100.00;100338.00;4981474;28;20077;-91
2022/10/12 11:13:43;;;;;;;2.08;0.90;;;;;;;13.88;100.00;100324.56;4996515;28;20078;-89
2022/10/12 11:16:36;;;;;;;4.15;1.20;;;;;;;13.81;100.00;100316.22;4983658;28;20050;-91
2022/10/12 11:19:36;;;;;;;2.50;0.97;;;;;;;13.77;100.00;100321.72;4997108;28;20437;-90
2022/10/12 11:22:09;;;;;;;3.42;1.05;;;;;;;14.04;100.00;100342.94;4969661;28;20473;-90
2022/10/12 11:24:58;;;;;;;2.72;1.35;;;;;;;13.99;100.00;100332.72;4980515;28;20058;-91
2022/10/12 11:27:40;;;;;;;2.15;0.95;;;;;;;14.29;100.00;100347.66;4967559;28;20109;-90
2022/10/12 11:30:16;;;;;;;6.75;1.00;;;;;;;14.28;100.00;100350.38;4961077;28;20046;-90